Hub


Voltar

 INFORMAÇÕES METEOROLÓGICAS

METAR FOR PAYA


ADDS - METARS form results

(2023 UTC 17 January 2019)
Data provider http://aviationweather.gov/metar/data/
 
METAR text: PAYA 172017Z AUTO 00000KT 1 1/4SM BR OVC009 00/M01 A2955 RMK AO2 I1000 T00001006 TSNO
Conditions at: PAYA (YAKUTAT , AK, US) observed 2017 UTC 17 January 2019
Temperature: 0.0°C (32°F)
Dewpoint: -0.6°C (31°F) [RH = 96%]
Pressure (altimeter): 29.55 inches Hg (1000.8 mb)
Winds: calm
Visibility: 1.25 miles (2.01 km)
Ceiling: 900 feet AGL
Clouds: overcast cloud deck at 900 feet AGL
Weather: BR  (mist)

METAR text: PAYA 172001Z AUTO 00000KT 3/4SM BR OVC008 M01/M01 A2956 RMK AO2 T10061006 TSNO RVRNO
Conditions at: PAYA (YAKUTAT , AK, US) observed 2001 UTC 17 January 2019
Temperature: -0.6°C (31°F)
Dewpoint: -0.6°C (31°F) [RH = 100%]
Pressure (altimeter): 29.56 inches Hg (1001.1 mb)
Winds: calm
Visibility: 0.75 miles (1.21 km)
Ceiling: 800 feet AGL
Clouds: overcast cloud deck at 800 feet AGL
Weather: BR  (mist)

METAR text: PAYA 171953Z AUTO 00000KT 1/4SM FZFG OVC008 M01/M01 A2956 RMK AO2 SLP011 T10061011 TSNO RVRNO
Conditions at: PAYA (YAKUTAT , AK, US) observed 1953 UTC 17 January 2019
Temperature: -0.6°C (31°F)
Dewpoint: -1.1°C (30°F) [RH = 96%]
Pressure (altimeter): 29.56 inches Hg (1001.1 mb)
[Sea-level pressure: 1001.1 mb]
Winds: calm
Visibility: 0.25 miles (0.40 km)
Ceiling: 800 feet AGL
Clouds: overcast cloud deck at 800 feet AGL
Weather: FZFG  (freezing fog)

Forecast for: PAYA (YAKUTAT , AK, US)
Text: PAYA 171958Z 1720/1818 00000KT 1/2SM FG OVC007
Forecast period: 2000 to 2100 UTC 17 January 2019
Forecast type: FROM: standard forecast or significant change
Winds: calm
Visibility: 0.50 miles (0.80 km)
Ceiling: 700 feet AGL
Clouds: overcast cloud deck at 700 feet AGL
Weather: FG  (fog)
Text: FM172100 07004KT P6SM BKN010
Forecast period: 2100 UTC 17 January 2019 to 0000 UTC 18 January 2019
Forecast type: FROM: standard forecast or significant change
Winds: from the ENE (70 degrees) at 5 MPH (4 knots; 2.1 m/s)
Visibility: 6 or more miles 10+ km)
Ceiling: 1000 feet AGL
Clouds: broken clouds at 1000 feet AGL
Weather: no significant weather forecast for this period
Text: FM180000 08004KT P6SM FEW010 AMD LTD TO CLD VIS AND WIND
Forecast period: 0000 to 1800 UTC 18 January 2019
Forecast type: FROM: standard forecast or significant change
Winds: from the E (80 degrees) at 5 MPH (4 knots; 2.1 m/s)
Visibility: 6 or more miles 10+ km)
Ceiling: at least 12,000 feet AGL
Clouds: few clouds at 1000 feet AGL
Weather: no significant weather forecast for this period


 MAPA DO AEROPORTO


 INFORMAÇÕES DA PISTA

Pista 02 Tamanho da pista 6475 ft Largura da pista 150 ft
Elevação da pista 18 ft Ranhura da pista 0 ft Proa da pista 45
Pista 20 Tamanho da pista 6475 ft Largura da pista 150 ft
Elevação da pista 30 ft Ranhura da pista 0 ft Proa da pista 225
Pista 11 Tamanho da pista 7745 ft Largura da pista 150 ft
Elevação da pista 32 ft Ranhura da pista 0 ft Proa da pista 135
Pista 29 Tamanho da pista 7745 ft Largura da pista 150 ft
Elevação da pista 19 ft Ranhura da pista 0 ft Proa da pista 315

 FREQUÊNCIAS DO AEROPORTO


 AUXÍLIOS DE NAVEGAÇÃO PRÓXIMOS AO AEROPORTO

Tipo NDB Nome Ocean Cape Frequência 385 KHZ
Tipo VOR-DME Nome Yakutat Frequência 113300 KHZ